Time;durP1;ratioP1;P1;durP2;ratioP2;P2;SDS_P1;SDS_P2;PMS_P1;PMS_P2;Temp;Humidity;BMP_temperature;BMP_pressure;BME280_temperature;BME280_humidity;BME280_pressure;Samples;Min_cycle;Max_cycle;Signal;HPM_P1;HPM_P2
2021/12/16 00:02:01;;;;;;;23.92;13.18;;;5.20;99.90;;;;;;5031337;28;20507;-72
2021/12/16 00:05:56;;;;;;;28.30;13.00;;;5.20;99.90;;;;;;5032227;28;20052;-72
2021/12/16 00:08:41;;;;;;;29.92;16.05;;;5.20;99.90;;;;;;5031634;28;20048;-72
2021/12/16 00:29:15;;;;;;;20.05;11.73;;;5.10;99.90;;;;;;5027623;28;20044;-72
2021/12/16 00:32:32;;;;;;;20.55;11.93;;;5.10;99.90;;;;;;5031949;28;20032;-72
2021/12/16 00:35:37;;;;;;;23.15;12.07;;;5.20;99.90;;;;;;5027294;28;20040;-72
2021/12/16 00:38:43;;;;;;;20.75;11.15;;;5.20;99.90;;;;;;5029287;28;20057;-72
2021/12/16 00:41:51;;;;;;;20.17;10.73;;;5.20;99.90;;;;;;5028261;28;20040;-72
2021/12/16 00:45:19;;;;;;;19.13;10.32;;;5.20;99.90;;;;;;5029674;28;20044;-72
2021/12/16 00:48:26;;;;;;;20.45;12.75;;;5.20;99.90;;;;;;5025692;28;20408;-72
2021/12/16 00:55:05;;;;;;;18.48;12.10;;;5.00;99.90;;;;;;5036949;28;20048;-72
2021/12/16 00:58:09;;;;;;;22.08;10.80;;;5.00;99.90;;;;;;5034308;28;20040;-71
2021/12/16 01:35:26;;;;;;;18.75;11.70;;;4.90;99.90;;;;;;5029969;28;20515;-72
2021/12/16 01:55:11;;;;;;;18.23;11.05;;;4.60;99.90;;;;;;5029560;28;20037;-72
2021/12/16 01:58:20;;;;;;;17.33;10.90;;;4.60;99.90;;;;;;5025982;28;20412;-72
2021/12/16 02:01:31;;;;;;;24.15;13.93;;;4.50;99.90;;;;;;5025772;28;20040;-72
2021/12/16 02:04:42;;;;;;;17.00;10.77;;;4.50;99.90;;;;;;5019711;28;20499;-72
2021/12/16 02:08:17;;;;;;;22.63;13.82;;;4.50;99.90;;;;;;5029165;28;20052;-72
2021/12/16 02:35:09;;;;;;;15.32;9.43;;;4.50;99.90;;;;;;5028228;28;20483;-72
2021/12/16 02:38:07;;;;;;;18.52;11.63;;;4.50;99.90;;;;;;5039608;28;20052;-72
2021/12/16 02:41:11;;;;;;;16.55;11.65;;;4.50;99.90;;;;;;5026316;28;20503;-72
2021/12/16 02:51:11;;;;;;;19.00;12.40;;;4.50;99.90;;;;;;5029591;28;20052;-72
2021/12/16 02:54:15;;;;;;;15.77;11.18;;;4.40;99.90;;;;;;5029862;28;20037;-72
2021/12/16 02:57:20;;;;;;;19.27;9.20;;;4.30;99.90;;;;;;5027507;28;20044;-72
2021/12/16 03:00:24;;;;;;;14.52;9.98;;;4.30;99.90;;;;;;5022079;28;20491;-72
2021/12/16 03:03:29;;;;;;;14.20;8.40;;;4.30;99.90;;;;;;5028475;28;20052;-72
2021/12/16 03:06:34;;;;;;;13.07;9.02;;;4.30;99.90;;;;;;5028428;28;20040;-72
2021/12/16 03:13:05;;;;;;;13.18;8.25;;;4.20;99.90;;;;;;5029552;28;20056;-72
2021/12/16 03:16:27;;;;;;;18.58;9.85;;;4.20;99.90;;;;;;5021414;28;20037;-72
2021/12/16 03:22:58;;;;;;;11.55;7.72;;;4.10;99.90;;;;;;5027183;28;20491;-72
2021/12/16 03:36:13;;;;;;;10.15;6.25;;;3.90;99.90;;;;;;5027642;28;20060;-72
2021/12/16 03:39:18;;;;;;;12.45;6.70;;;4.10;99.90;;;;;;5025256;28;20412;-72
2021/12/16 03:42:27;;;;;;;11.45;7.40;;;4.20;99.90;;;;;;5032377;28;20048;-71
2021/12/16 03:49:10;;;;;;;12.85;7.55;;;3.90;99.90;;;;;;5027242;28;20041;-72
2021/12/16 03:52:15;;;;;;;9.60;6.20;;;3.90;99.90;;;;;;5023523;28;20041;-72
2021/12/16 03:55:20;;;;;;;11.35;6.95;;;4.00;99.90;;;;;;5025614;28;20049;-72
2021/12/16 03:58:24;;;;;;;11.57;6.82;;;4.00;99.90;;;;;;5026928;28;20048;-72
2021/12/16 04:01:32;;;;;;;13.55;7.00;;;4.10;99.90;;;;;;5023569;28;20436;-72
2021/12/16 04:04:38;;;;;;;14.38;6.78;;;4.00;99.90;;;;;;5026533;28;20049;-72
2021/12/16 04:07:43;;;;;;;11.88;6.65;;;4.00;99.90;;;;;;5023939;28;20037;-72
2021/12/16 04:11:21;;;;;;;13.00;8.13;;;4.10;99.90;;;;;;5028309;28;20709;-72
2021/12/16 04:14:41;;;;;;;16.25;8.68;;;4.00;99.90;;;;;;5037279;28;20036;-72
2021/12/16 04:17:46;;;;;;;12.80;9.15;;;4.10;99.90;;;;;;5025118;28;20040;-72
2021/12/16 04:20:52;;;;;;;16.23;9.57;;;4.00;99.90;;;;;;5027806;28;20064;-72
2021/12/16 04:23:58;;;;;;;11.70;7.00;;;4.00;99.90;;;;;;5030399;28;20044;-72
2021/12/16 04:27:04;;;;;;;24.98;13.48;;;3.90;99.90;;;;;;5031181;28;20048;-72
2021/12/16 04:30:11;;;;;;;16.90;12.27;;;3.90;99.90;;;;;;5027725;28;20044;-72
2021/12/16 04:33:17;;;;;;;14.07;8.45;;;4.00;99.90;;;;;;5028185;28;20048;-72
2021/12/16 04:36:22;;;;;;;7.55;5.57;;;4.00;99.90;;;;;;5031418;28;20056;-72
2021/12/16 04:39:31;;;;;;;13.02;8.30;;;4.00;99.90;;;;;;5031364;28;20037;-72
2021/12/16 04:42:37;;;;;;;13.20;9.00;;;3.90;99.90;;;;;;5026828;28;20064;-72
2021/12/16 04:45:43;;;;;;;14.65;8.23;;;3.80;99.90;;;;;;5028102;28;20051;-72
2021/12/16 04:48:51;;;;;;;12.30;8.10;;;3.80;99.90;;;;;;5027471;28;20048;-72
2021/12/16 04:52:13;;;;;;;16.38;9.77;;;3.80;99.90;;;;;;5027066;28;20060;-72
2021/12/16 04:55:20;;;;;;;12.18;7.00;;;3.70;99.90;;;;;;5025557;28;20053;-71
2021/12/16 04:58:25;;;;;;;10.50;6.60;;;3.80;99.90;;;;;;5030233;28;20044;-71
2021/12/16 05:01:29;;;;;;;11.15;6.05;;;3.90;99.90;;;;;;5024848;28;20392;-72
2021/12/16 05:04:34;;;;;;;9.10;5.25;;;3.80;99.90;;;;;;5027272;28;20064;-72
2021/12/16 05:07:40;;;;;;;7.53;5.30;;;3.80;99.90;;;;;;5029446;28;20033;-72
2021/12/16 05:11:02;;;;;;;9.70;6.05;;;3.80;99.90;;;;;;5029647;28;20381;-72
2021/12/16 05:14:08;;;;;;;11.57;6.53;;;3.90;99.90;;;;;;5026053;28;20041;-72
2021/12/16 05:20:54;;;;;;;8.85;5.63;;;4.00;99.90;;;;;;5023625;28;20042;-72
2021/12/16 05:27:19;;;;;;;11.55;6.70;;;4.10;99.90;;;;;;5030345;28;20052;-72
2021/12/16 05:30:24;;;;;;;13.55;7.13;;;4.10;99.90;;;;;;5029523;28;20044;-72
2021/12/16 05:33:27;;;;;;;13.48;7.22;;;4.00;99.90;;;;;;5025255;28;20048;-72
2021/12/16 05:36:37;;;;;;;11.13;6.57;;;3.90;99.90;;;;;;5028584;28;20040;-72
2021/12/16 05:39:42;;;;;;;14.52;7.68;;;3.80;99.90;;;;;;5027312;28;20056;-72
2021/12/16 05:43:07;;;;;;;16.38;7.18;;;3.60;99.90;;;;;;5030919;28;20048;-72
2021/12/16 05:46:14;;;;;;;19.95;17.40;;;3.50;99.90;;;;;;5019536;28;20041;-72
2021/12/16 05:49:20;;;;;;;14.02;7.45;;;3.50;99.90;;;;;;5029955;28;20048;-72
2021/12/16 05:52:26;;;;;;;12.55;7.18;;;3.50;99.90;;;;;;5030374;28;20503;-72
2021/12/16 05:55:32;;;;;;;10.85;5.65;;;3.40;99.90;;;;;;5023963;28;20036;-72
2021/12/16 05:58:48;;;;;;;10.90;6.22;;;3.30;99.90;;;;;;5032406;28;20048;-72
2021/12/16 06:01:54;;;;;;;11.52;6.88;;;3.30;99.90;;;;;;5028512;28;20068;-71
2021/12/16 06:05:06;;;;;;;11.33;6.17;;;3.00;99.90;;;;;;5018757;28;20049;-72
2021/12/16 06:08:11;;;;;;;12.40;6.63;;;3.00;99.90;;;;;;5022103;28;20766;-72
2021/12/16 06:11:19;;;;;;;12.30;7.43;;;3.00;99.90;;;;;;5028832;28;20052;-71
2021/12/16 06:14:52;;;;;;;14.15;6.95;;;3.00;99.90;;;;;;5030278;28;20040;-72
2021/12/16 06:28:04;;;;;;;13.52;7.95;;;2.90;99.90;;;;;;5030205;28;20468;-72
2021/12/16 06:31:09;;;;;;;16.48;8.30;;;2.90;99.90;;;;;;5029620;28;20052;-72
2021/12/16 06:34:15;;;;;;;17.25;10.82;;;2.90;99.90;;;;;;5021260;28;20503;-72
2021/12/16 06:37:20;;;;;;;15.65;9.20;;;2.90;99.90;;;;;;5029349;28;20037;-72
2021/12/16 06:40:25;;;;;;;16.75;9.30;;;3.00;99.90;;;;;;5022634;28;20036;-72
2021/12/16 06:43:38;;;;;;;18.23;9.80;;;3.00;99.90;;;;;;5027672;28;20040;-71
2021/12/16 06:46:44;;;;;;;20.92;10.93;;;2.90;99.90;;;;;;5027039;28;20511;-71
2021/12/16 06:49:51;;;;;;;15.48;9.80;;;2.80;99.90;;;;;;5028463;28;20037;-72
2021/12/16 06:53:00;;;;;;;18.92;10.82;;;2.70;99.90;;;;;;5024414;28;20044;-71
2021/12/16 06:56:13;;;;;;;18.33;10.77;;;2.70;99.90;;;;;;5023299;28;20053;-72
2021/12/16 06:59:24;;;;;;;18.05;10.10;;;2.70;99.90;;;;;;5027886;28;20599;-71
2021/12/16 07:03:18;;;;;;;16.42;10.50;;;2.60;99.90;;;;;;5020358;28;20412;-71
2021/12/16 07:05:56;;;;;;;15.38;8.48;;;2.60;99.90;;;;;;5029799;28;20384;-72
2021/12/16 07:09:11;;;;;;;13.02;7.88;;;2.60;99.90;;;;;;5024341;28;20393;-72
2021/12/16 07:12:23;;;;;;;15.45;7.07;;;2.70;99.90;;;;;;5024023;28;20044;-72
2021/12/16 07:15:31;;;;;;;12.73;6.07;;;3.90;99.90;;;;;;5028367;28;20223;-72
2021/12/16 07:18:36;;;;;;;15.75;8.73;;;6.80;99.90;;;;;;5022260;28;20380;-72
2021/12/16 07:21:41;;;;;;;34.35;16.33;;;9.40;99.90;;;;;;5026587;28;20044;-72
2021/12/16 07:24:46;;;;;;;38.50;17.65;;;11.20;99.90;;;;;;5027292;28;20044;-72
2021/12/16 07:27:51;;;;;;;26.88;13.77;;;11.20;99.90;;;;;;5028488;28;20041;-72
2021/12/16 07:30:57;;;;;;;23.58;12.63;;;12.80;99.90;;;;;;5028391;28;20060;-72
2021/12/16 07:34:01;;;;;;;20.02;9.57;;;13.90;99.90;;;;;;5024502;28;20041;-73
2021/12/16 07:37:08;;;;;;;16.92;10.02;;;13.90;99.90;;;;;;5027656;28;20048;-72
2021/12/16 07:40:15;;;;;;;12.70;7.95;;;15.40;99.90;;;;;;5028564;28;20048;-72
2021/12/16 07:46:48;;;;;;;26.45;19.77;;;17.80;97.20;;;;;;5031520;28;20526;-73
2021/12/16 07:49:52;;;;;;;32.10;24.63;;;19.00;93.50;;;;;;5024043;28;20044;-71
2021/12/16 07:52:56;;;;;;;32.97;26.17;;;19.80;92.60;;;;;;5023182;28;20088;-71
2021/12/16 07:56:03;;;;;;;35.42;27.45;;;20.60;90.10;;;;;;5020516;28;20108;-72
2021/12/16 07:59:08;;;;;;;32.92;24.80;;;20.50;90.30;;;;;;5028401;28;20052;-70
2021/12/16 08:02:12;;;;;;;15.15;12.02;;;21.00;90.50;;;;;;5029271;28;20395;-71
2021/12/16 08:05:19;;;;;;;11.80;9.88;;;21.90;88.10;;;;;;5030123;28;20079;-70
2021/12/16 08:08:23;;;;;;;8.45;6.75;;;22.50;85.20;;;;;;5032312;28;20511;-70
2021/12/16 08:11:31;;;;;;;24.35;21.08;;;23.50;85.20;;;;;;5030657;28;20052;-70
2021/12/16 08:14:36;;;;;;;24.35;19.02;;;17.30;84.70;;;;;;5029783;28;20037;-73
2021/12/16 08:17:42;;;;;;;20.95;16.63;;;17.70;91.20;;;;;;5030585;28;20052;-70
2021/12/16 08:20:47;;;;;;;19.83;15.55;;;19.20;89.10;;;;;;5025165;28;20049;-71
2021/12/16 08:23:51;;;;;;;17.50;13.85;;;21.20;88.50;;;;;;5030267;28;20040;-71
2021/12/16 08:26:56;;;;;;;33.45;28.08;;;23.30;81.50;;;;;;5031768;28;20056;-71
2021/12/16 08:30:00;;;;;;;55.60;46.65;;;24.20;78.90;;;;;;5026776;28;20041;-71
2021/12/16 08:33:09;;;;;;;42.03;35.63;;;24.60;78.20;;;;;;5030892;28;20041;-71
2021/12/16 08:36:15;;;;;;;22.15;19.70;;;25.10;78.10;;;;;;5025999;28;20048;-71
2021/12/16 08:39:19;;;;;;;27.13;24.23;;;25.30;72.70;;;;;;5031572;28;20040;-71
2021/12/16 08:42:23;;;;;;;19.88;16.95;;;24.10;73.20;;;;;;5030001;28;20048;-71
2021/12/16 08:45:31;;;;;;;11.50;9.90;;;20.10;79.00;;;;;;5024102;28;20045;-71
2021/12/16 08:48:35;;;;;;;9.75;8.35;;;22.40;77.20;;;;;;5030172;28;20448;-71
2021/12/16 08:51:44;;;;;;;5.97;5.28;;;20.90;77.00;;;;;;5026318;28;20068;-71
2021/12/16 08:54:50;;;;;;;6.13;4.88;;;22.60;77.90;;;;;;5022164;28;20029;-73
2021/12/16 08:57:56;;;;;;;9.25;6.13;;;22.80;72.90;;;;;;5026755;28;20044;-71
2021/12/16 09:01:20;;;;;;;6.22;5.18;;;18.70;79.80;;;;;;5031493;28;20048;-71
2021/12/16 09:04:24;;;;;;;7.63;5.30;;;21.90;76.70;;;;;;5027920;28;20420;-71
2021/12/16 09:07:28;;;;;;;6.03;4.75;;;24.20;77.00;;;;;;5025965;28;20519;-71
2021/12/16 09:10:34;;;;;;;9.77;7.45;;;25.90;70.80;;;;;;5024459;28;20040;-71
2021/12/16 09:13:41;;;;;;;3.47;3.00;;;26.70;71.60;;;;;;5029882;28;20105;-71
2021/12/16 09:16:46;;;;;;;5.95;3.20;;;28.10;67.10;;;;;;5026014;28;20598;-71
2021/12/16 09:19:52;;;;;;;3.50;2.97;;;27.60;67.40;;;;;;5022934;28;20113;-71
2021/12/16 09:22:56;;;;;;;6.07;3.97;;;27.40;67.90;;;;;;5028545;28;20039;-71
2021/12/16 09:26:01;;;;;;;7.78;4.80;;;28.10;66.10;;;;;;5030214;28;20072;-71
2021/12/16 09:29:05;;;;;;;4.18;3.38;;;28.10;66.50;;;;;;5024300;28;20666;-71
2021/12/16 09:32:09;;;;;;;5.57;4.65;;;28.70;66.00;;;;;;5029451;28;20056;-72
2021/12/16 09:35:13;;;;;;;9.95;8.20;;;27.30;63.60;;;;;;5029068;28;20389;-71
2021/12/16 09:38:20;;;;;;;19.17;15.70;;;24.20;68.70;;;;;;5030059;28;20361;-71
2021/12/16 09:41:27;;;;;;;19.45;14.52;;;25.30;67.90;;;;;;5030773;28;20056;-71
2021/12/16 09:44:32;;;;;;;16.95;13.65;;;27.90;66.10;;;;;;5024182;28;20520;-71
2021/12/16 09:47:38;;;;;;;18.23;14.25;;;26.80;65.80;;;;;;5024344;28;20503;-71
2021/12/16 09:50:42;;;;;;;11.27;9.43;;;22.00;70.00;;;;;;5022510;28;20053;-70
2021/12/16 09:53:46;;;;;;;11.98;9.75;;;20.70;73.20;;;;;;5030940;28;20311;-71
2021/12/16 09:56:53;;;;;;;13.95;9.50;;;21.80;73.40;;;;;;5027906;28;20041;-70
2021/12/16 09:59:58;;;;;;;12.23;7.95;;;22.90;72.70;;;;;;5025869;28;20389;-70
2021/12/16 10:03:04;;;;;;;8.88;7.35;;;24.60;70.20;;;;;;5028197;28;20056;-71
2021/12/16 10:06:08;;;;;;;10.00;8.55;;;26.50;67.90;;;;;;5027187;28;20044;-72
2021/12/16 10:09:13;;;;;;;8.77;7.40;;;29.30;66.60;;;;;;5029950;28;20411;-71
2021/12/16 10:12:23;;;;;;;8.55;7.40;;;30.60;63.40;;;;;;5024803;28;20040;-71
2021/12/16 10:18:39;;;;;;;9.38;7.90;;;23.80;66.40;;;;;;5032375;28;20037;-71
2021/12/16 10:21:45;;;;;;;13.35;11.25;;;20.20;71.80;;;;;;5024963;28;20044;-71
2021/12/16 10:24:51;;;;;;;11.20;8.32;;;20.50;74.70;;;;;;5028270;28;20037;-71
2021/12/16 10:28:00;;;;;;;8.65;7.18;;;20.60;72.80;;;;;;5027330;28;20044;-71
2021/12/16 10:31:06;;;;;;;7.22;6.28;;;21.10;71.00;;;;;;5027329;28;20060;-71
2021/12/16 10:34:10;;;;;;;9.52;6.65;;;18.60;76.50;;;;;;5028360;28;20037;-71
2021/12/16 10:37:14;;;;;;;8.02;6.40;;;18.00;79.60;;;;;;5026470;28;20045;-70
2021/12/16 10:40:22;;;;;;;8.52;6.00;;;16.50;82.60;;;;;;5029229;28;20651;-70
2021/12/16 10:43:35;;;;;;;9.77;6.60;;;15.50;86.00;;;;;;5026921;28;20048;-71
2021/12/16 10:47:00;;;;;;;12.82;8.98;;;15.40;86.10;;;;;;5027860;28;20052;-70
2021/12/16 10:50:14;;;;;;;18.30;11.43;;;15.40;86.30;;;;;;5027116;28;20051;-73
2021/12/16 10:53:47;;;;;;;14.65;9.88;;;14.70;88.60;;;;;;5029084;28;20056;-73
2021/12/16 10:57:01;;;;;;;11.18;7.47;;;14.70;89.60;;;;;;5028066;28;20040;-73
2021/12/16 11:00:13;;;;;;;19.98;10.07;;;14.40;89.50;;;;;;5025389;28;20053;-72
2021/12/16 11:03:50;;;;;;;13.35;8.02;;;14.70;90.20;;;;;;5024141;28;20043;-73
2021/12/16 11:07:03;;;;;;;16.88;8.57;;;16.60;86.30;;;;;;5022871;28;20056;-73
2021/12/16 11:10:47;;;;;;;12.18;7.18;;;18.50;82.30;;;;;;5027694;28;20227;-71
2021/12/16 11:14:05;;;;;;;10.68;7.30;;;22.10;74.20;;;;;;5024625;28;20543;-71
2021/12/16 11:17:14;;;;;;;11.23;7.60;;;23.80;71.50;;;;;;5023366;28;20029;-71
2021/12/16 11:20:32;;;;;;;11.70;8.50;;;24.50;68.90;;;;;;5023315;28;20507;-72
2021/12/16 11:23:43;;;;;;;12.48;8.55;;;23.70;71.10;;;;;;5026698;28;20052;-71
2021/12/16 11:26:48;;;;;;;12.52;8.13;;;23.90;71.40;;;;;;5023586;28;20036;-71
2021/12/16 11:29:53;;;;;;;10.52;7.22;;;25.40;70.00;;;;;;5028660;28;20056;-72
2021/12/16 11:33:26;;;;;;;9.77;6.88;;;27.50;66.70;;;;;;5032604;28;20047;-72
2021/12/16 11:36:44;;;;;;;13.10;7.63;;;30.20;63.90;;;;;;5030677;28;20036;-72
2021/12/16 11:39:48;;;;;;;16.17;11.15;;;30.90;62.70;;;;;;5032147;28;20040;-71
2021/12/16 11:43:03;;;;;;;9.73;8.40;;;31.30;62.30;;;;;;5033044;28;20060;-71
2021/12/16 11:46:19;;;;;;;7.35;6.15;;;31.80;62.10;;;;;;5031124;28;20044;-71
2021/12/16 11:49:29;;;;;;;8.45;5.93;;;33.10;61.00;;;;;;5031581;28;20045;-72
2021/12/16 11:52:35;;;;;;;;;;;33.60;59.40;;;;;;5032474;28;20495;-72
2021/12/16 11:55:39;;;;;;;6.95;5.47;;;32.40;57.60;;;;;;5030258;28;19909;-72
2021/12/16 11:58:45;;;;;;;5.30;4.80;;;32.30;57.40;;;;;;5031769;28;20041;-72
2021/12/16 12:01:49;;;;;;;7.25;5.47;;;33.20;57.20;;;;;;5029198;28;20044;-72
2021/12/16 12:05:31;;;;;;;8.55;6.47;;;30.80;55.30;;;;;;5028817;28;20392;-72
2021/12/16 12:08:36;;;;;;;4.80;4.22;;;28.00;55.80;;;;;;5030509;28;20507;-71
2021/12/16 12:11:42;;;;;;;6.57;4.32;;;27.10;59.40;;;;;;5026870;28;20048;-72
2021/12/16 12:14:47;;;;;;;3.53;3.03;;;28.90;58.10;;;;;;5024286;28;20045;-72
2021/12/16 12:17:55;;;;;;;4.80;3.80;;;28.00;56.70;;;;;;5028985;28;20052;-71
2021/12/16 12:21:27;;;;;;;6.18;4.00;;;26.00;59.70;;;;;;5027978;28;20045;-71
2021/12/16 12:24:46;;;;;;;6.63;3.50;;;24.80;58.20;;;;;;5017751;28;20036;-71
2021/12/16 12:27:50;;;;;;;4.72;3.67;;;25.50;59.10;;;;;;5029165;28;20044;-71
2021/12/16 12:30:54;;;;;;;4.18;3.65;;;23.50;58.50;;;;;;5030470;28;20043;-71
2021/12/16 12:33:58;;;;;;;4.90;3.15;;;23.30;62.00;;;;;;5027937;28;20070;-71
2021/12/16 12:37:06;;;;;;;4.63;2.92;;;22.60;59.40;;;;;;5028638;28;20057;-70
2021/12/16 12:40:18;;;;;;;4.07;2.88;;;19.60;63.00;;;;;;5028000;28;20060;-72
2021/12/16 12:43:22;;;;;;;5.88;4.22;;;20.20;66.60;;;;;;5028118;28;20044;-71
2021/12/16 12:46:27;;;;;;;7.65;5.00;;;18.70;69.70;;;;;;5028640;28;20372;-72
2021/12/16 12:49:31;;;;;;;7.93;5.35;;;19.90;68.70;;;;;;5023964;28;20049;-71
2021/12/16 12:52:36;;;;;;;8.63;4.82;;;19.10;69.90;;;;;;5027597;28;20070;-71
2021/12/16 12:55:41;;;;;;;6.95;3.17;;;19.40;68.00;;;;;;5028876;28;20503;-74
2021/12/16 12:59:01;;;;;;;5.63;2.90;;;21.30;66.60;;;;;;5026193;28;20511;-72
2021/12/16 13:02:18;;;;;;;29.90;17.55;;;24.00;62.40;;;;;;5027319;28;20388;-71
2021/12/16 13:05:22;;;;;;;10.93;6.43;;;21.40;63.20;;;;;;5022246;28;20041;-71
2021/12/16 13:08:37;;;;;;;13.48;7.63;;;20.50;66.40;;;;;;5024076;28;20292;-74
2021/12/16 13:11:42;;;;;;;19.48;10.38;;;18.70;67.50;;;;;;5027864;28;20053;-72
2021/12/16 13:14:50;;;;;;;16.73;8.35;;;20.00;67.50;;;;;;5022854;28;20507;-72
2021/12/16 13:27:47;;;;;;;5.95;4.53;;;20.90;65.40;;;;;;5028193;28;20037;-72
2021/12/16 13:31:02;;;;;;;11.32;5.88;;;20.00;66.00;;;;;;5029405;28;20052;-74
2021/12/16 13:34:25;;;;;;;8.10;4.60;;;21.00;65.00;;;;;;5027309;28;20048;-71
2021/12/16 13:37:33;;;;;;;27.35;13.88;;;22.40;62.80;;;;;;5028961;28;20072;-71
2021/12/16 13:40:41;;;;;;;103.72;54.47;;;21.70;64.00;;;;;;5026300;28;20044;-71
2021/12/16 13:44:15;;;;;;;9.02;5.57;;;21.20;65.50;;;;;;5019523;28;20137;-71
2021/12/16 14:04:39;;;;;;;8.02;5.43;;;25.30;59.10;;;;;;5027184;28;20029;-71
2021/12/16 14:07:55;;;;;;;11.75;6.53;;;24.70;61.20;;;;;;5022485;28;20041;-71
2021/12/16 14:11:05;;;;;;;7.55;5.45;;;23.90;60.40;;;;;;5026900;28;20518;-72
2021/12/16 14:14:47;;;;;;;7.35;4.80;;;24.40;61.00;;;;;;5026918;28;20509;-71
2021/12/16 14:38:09;;;;;;;6.18;4.10;;;22.50;66.00;;;;;;5022714;28;20052;-71
2021/12/16 14:42:13;;;;;;;5.82;4.10;;;23.00;65.50;;;;;;5029362;28;20048;-72
2021/12/16 14:51:19;;;;;;;8.43;5.30;;;22.70;64.20;;;;;;5027520;28;20040;-74
2021/12/16 14:54:23;;;;;;;8.52;4.55;;;21.30;65.70;;;;;;5026706;28;20044;-73
2021/12/16 14:57:33;;;;;;;7.05;5.15;;;20.20;67.30;;;;;;5023971;28;20408;-73
2021/12/16 15:00:53;;;;;;;6.97;4.18;;;20.20;68.50;;;;;;5027341;28;20036;-73
2021/12/16 15:03:58;;;;;;;9.73;5.63;;;19.20;68.60;;;;;;5029787;28;20068;-73
2021/12/16 15:07:07;;;;;;;9.60;5.15;;;18.70;70.20;;;;;;5028048;28;20515;-73
2021/12/16 15:10:17;;;;;;;15.85;8.77;;;17.70;72.60;;;;;;5018568;28;20044;-73
2021/12/16 15:13:35;;;;;;;16.27;7.95;;;17.30;72.80;;;;;;5019931;28;20045;-73
2021/12/16 15:16:53;;;;;;;46.83;22.45;;;16.90;73.20;;;;;;5025902;28;20045;-73
2021/12/16 15:35:34;;;;;;;27.17;16.95;;;15.20;78.30;;;;;;5027496;28;20044;-73
2021/12/16 15:37:44;;;;;;;23.27;12.35;;;14.50;81.90;;;;;;5026187;28;20037;-72
2021/12/16 15:40:57;;;;;;;29.58;16.90;;;13.80;84.20;;;;;;5021569;28;20045;-73
2021/12/16 15:44:08;;;;;;;44.97;26.02;;;13.30;86.60;;;;;;5027492;28;20033;-73
2021/12/16 15:47:12;;;;;;;71.03;39.75;;;12.80;89.60;;;;;;5026268;28;20072;-73
2021/12/16 15:50:21;;;;;;;68.55;43.05;;;12.40;91.10;;;;;;5020318;28;20044;-72
2021/12/16 15:53:35;;;;;;;64.25;38.92;;;12.00;91.80;;;;;;5023922;28;20491;-73
2021/12/16 15:56:40;;;;;;;56.03;31.10;;;11.70;93.00;;;;;;5025414;28;20044;-73
2021/12/16 15:59:48;;;;;;;67.57;37.13;;;11.40;93.70;;;;;;5025087;28;20253;-72
2021/12/16 16:02:56;;;;;;;67.28;37.53;;;11.10;94.70;;;;;;5022596;28;20045;-73
2021/12/16 16:06:05;;;;;;;59.67;33.90;;;10.80;96.10;;;;;;5019529;28;20053;-72
2021/12/16 16:09:12;;;;;;;56.92;31.83;;;10.60;97.00;;;;;;5019262;28;20033;-72
2021/12/16 16:12:24;;;;;;;53.03;32.55;;;10.50;98.50;;;;;;5029354;28;20318;-72
2021/12/16 16:15:29;;;;;;;43.40;25.75;;;10.30;99.40;;;;;;5029219;28;20040;-73
2021/12/16 16:18:39;;;;;;;49.78;25.98;;;10.00;99.90;;;;;;5029510;28;20400;-72
2021/12/16 16:21:46;;;;;;;47.47;25.17;;;9.80;99.90;;;;;;5029370;28;20053;-73
2021/12/16 16:24:53;;;;;;;59.38;31.88;;;9.70;99.90;;;;;;5030140;28;20056;-73
2021/12/16 16:27:58;;;;;;;58.03;33.38;;;9.60;99.90;;;;;;5030640;28;20044;-73
2021/12/16 16:31:04;;;;;;;32.80;18.13;;;9.50;99.90;;;;;;5030954;28;20048;-72
2021/12/16 16:34:12;;;;;;;40.08;22.45;;;9.50;99.90;;;;;;5029444;28;20041;-73
2021/12/16 16:37:32;;;;;;;34.53;19.58;;;9.40;99.90;;;;;;5032246;28;20062;-72
2021/12/16 16:40:38;;;;;;;28.38;17.25;;;9.30;99.90;;;;;;5026879;28;20048;-73
2021/12/16 16:43:48;;;;;;;27.65;18.42;;;9.30;99.90;;;;;;5029054;28;20040;-72
2021/12/16 16:46:58;;;;;;;26.50;16.38;;;9.30;99.90;;;;;;5032018;28;20487;-72
2021/12/16 16:50:08;;;;;;;30.52;18.08;;;9.20;99.90;;;;;;5030183;28;20519;-72
2021/12/16 16:53:13;;;;;;;26.10;16.27;;;9.10;99.90;;;;;;5032173;28;20496;-72
2021/12/16 16:56:31;;;;;;;27.00;16.80;;;9.10;99.90;;;;;;5032154;28;20056;-73
2021/12/16 17:00:15;;;;;;;30.52;19.88;;;8.90;99.90;;;;;;5030280;28;20053;-72
2021/12/16 17:03:22;;;;;;;34.45;22.30;;;8.90;99.90;;;;;;5031432;28;20040;-72
2021/12/16 17:06:27;;;;;;;39.50;26.05;;;8.70;99.90;;;;;;5030728;28;20648;-73
2021/12/16 17:09:37;;;;;;;33.85;19.15;;;8.70;99.90;;;;;;5032149;28;20040;-72
2021/12/16 17:12:42;;;;;;;25.50;15.25;;;8.60;99.90;;;;;;5027965;28;20045;-72
2021/12/16 17:18:58;;;;;;;27.02;16.45;;;8.70;99.90;;;;;;5029057;28;20045;-72
2021/12/16 17:22:11;;;;;;;22.42;13.30;;;8.70;99.90;;;;;;5030900;28;20056;-73
2021/12/16 17:25:18;;;;;;;24.65;13.63;;;8.70;99.90;;;;;;5029117;28;20064;-73
2021/12/16 17:28:22;;;;;;;19.30;10.48;;;8.70;99.90;;;;;;5026153;28;20048;-72
2021/12/16 17:31:47;;;;;;;31.02;19.02;;;8.60;99.90;;;;;;5029978;28;20056;-72
2021/12/16 17:35:09;;;;;;;16.45;10.50;;;8.60;99.90;;;;;;5030653;28;20384;-72
2021/12/16 17:38:21;;;;;;;15.18;8.77;;;8.50;99.90;;;;;;5030345;28;20042;-72
2021/12/16 17:41:25;;;;;;;20.15;11.45;;;8.40;99.90;;;;;;5031510;28;20056;-72
2021/12/16 17:44:30;;;;;;;16.98;10.52;;;8.40;99.90;;;;;;5030523;28;20404;-72
2021/12/16 17:47:35;;;;;;;22.10;10.75;;;8.40;99.90;;;;;;5029203;28;20048;-72
2021/12/16 17:50:45;;;;;;;19.65;12.45;;;8.30;99.90;;;;;;5027684;28;20647;-72
2021/12/16 17:53:53;;;;;;;25.17;13.15;;;8.30;99.90;;;;;;5029813;28;20511;-72
2021/12/16 17:56:59;;;;;;;19.27;11.13;;;8.20;99.90;;;;;;5030066;28;20044;-72
2021/12/16 18:00:22;;;;;;;23.17;13.23;;;8.10;99.90;;;;;;5029321;28;20040;-73
2021/12/16 18:03:32;;;;;;;25.15;14.15;;;8.00;99.90;;;;;;5031360;28;20045;-72
2021/12/16 18:06:42;;;;;;;27.67;14.40;;;8.00;99.90;;;;;;5027995;28;20060;-73
2021/12/16 18:09:47;;;;;;;23.27;12.48;;;8.00;99.90;;;;;;5029425;28;20049;-72
2021/12/16 18:12:52;;;;;;;29.13;16.15;;;8.00;99.90;;;;;;5030669;28;20048;-72
2021/12/16 18:15:56;;;;;;;32.42;18.38;;;8.00;99.90;;;;;;5030253;28;20052;-72
2021/12/16 18:19:12;;;;;;;42.90;21.08;;;7.90;99.90;;;;;;5029172;28;20044;-72
2021/12/16 18:22:23;;;;;;;67.57;32.80;;;7.80;99.90;;;;;;5030849;28;20041;-72
2021/12/16 18:25:35;;;;;;;44.92;26.27;;;7.70;99.90;;;;;;5029514;28;20036;-72
2021/12/16 18:28:44;;;;;;;48.72;24.15;;;7.50;99.90;;;;;;5025545;28;20036;-72
2021/12/16 18:31:48;;;;;;;33.60;18.67;;;7.30;99.90;;;;;;5029990;28;20036;-73
2021/12/16 18:34:52;;;;;;;35.13;18.88;;;7.30;99.90;;;;;;5027882;28;20044;-72
2021/12/16 18:37:56;;;;;;;46.67;25.67;;;7.20;99.90;;;;;;5027686;28;20064;-73
2021/12/16 18:41:05;;;;;;;447.70;202.23;;;7.10;99.90;;;;;;5028586;28;20048;-72
2021/12/16 18:44:20;;;;;;;28.48;16.08;;;7.10;99.90;;;;;;5027752;28;20492;-72
2021/12/16 18:54:45;;;;;;;44.90;34.03;;;6.90;99.90;;;;;;5028349;28;20124;-72
2021/12/16 18:57:30;;;;;;;24.63;15.32;;;6.80;99.90;;;;;;5027934;28;20041;-72
2021/12/16 19:00:39;;;;;;;23.70;11.80;;;6.80;99.90;;;;;;5028497;28;20049;-72
2021/12/16 19:03:44;;;;;;;18.73;12.82;;;6.80;99.90;;;;;;5026119;28;20322;-72
2021/12/16 19:06:51;;;;;;;25.38;16.23;;;6.80;99.90;;;;;;5027475;28;20049;-72
2021/12/16 19:09:59;;;;;;;22.48;11.98;;;6.80;99.90;;;;;;5029280;28;20049;-72
2021/12/16 19:13:16;;;;;;;25.20;13.32;;;6.70;99.90;;;;;;5028789;28;20044;-72
2021/12/16 19:16:22;;;;;;;27.75;15.88;;;6.70;99.90;;;;;;5029387;28;20037;-72
2021/12/16 19:19:29;;;;;;;61.35;28.42;;;6.60;99.90;;;;;;5023317;28;20033;-72
2021/12/16 19:22:34;;;;;;;72.63;35.35;;;6.50;99.90;;;;;;5025388;28;20060;-73
2021/12/16 19:25:41;;;;;;;41.00;21.70;;;6.50;99.90;;;;;;5025088;28;20036;-73
2021/12/16 19:28:46;;;;;;;32.50;20.40;;;6.40;99.90;;;;;;5027544;28;20052;-73
2021/12/16 19:31:50;;;;;;;24.85;15.45;;;6.40;99.90;;;;;;5028366;28;20048;-72
2021/12/16 19:34:59;;;;;;;27.70;15.68;;;6.30;99.90;;;;;;5028668;28;20096;-73
2021/12/16 19:38:05;;;;;;;21.48;13.20;;;6.30;99.90;;;;;;5028926;28;20032;-73
2021/12/16 19:41:15;;;;;;;27.00;15.93;;;6.20;99.90;;;;;;5029197;28;20048;-73
2021/12/16 19:44:23;;;;;;;38.25;21.67;;;6.10;99.90;;;;;;5022330;28;20045;-73
2021/12/16 19:47:27;;;;;;;30.65;17.80;;;6.10;99.90;;;;;;5025856;28;20499;-72
2021/12/16 19:50:37;;;;;;;51.40;32.08;;;6.10;99.90;;;;;;5028516;28;20053;-72
2021/12/16 19:53:42;;;;;;;34.03;19.20;;;6.10;99.90;;;;;;5029233;28;20056;-73
2021/12/16 19:56:48;;;;;;;38.72;22.85;;;6.10;99.90;;;;;;5030092;28;20036;-72
2021/12/16 19:59:54;;;;;;;26.27;17.85;;;6.00;99.90;;;;;;5032170;28;20046;-72
2021/12/16 20:02:58;;;;;;;21.30;13.55;;;6.00;99.90;;;;;;5043087;28;20060;-72